Time;durP1;ratioP1;P1;durP2;ratioP2;P2;SDS_P1;SDS_P2;PMS_P1;PMS_P2;Temp;Humidity;BMP_temperature;BMP_pressure;BME280_temperature;BME280_humidity;BME280_pressure;Samples;Min_cycle;Max_cycle;Signal;HPM_P1;HPM_P2
2022/05/04 00:00:09;;;;;;;4.40;0.43;;;;;;;7.06;40.39;101949.13;5068726;28;20372;-80
2022/05/04 00:02:41;;;;;;;6.10;0.40;;;;;;;7.00;40.73;101950.91;5052288;28;20043;-80
2022/05/04 00:05:08;;;;;;;3.28;1.02;;;;;;;7.00;40.74;101953.50;5048642;28;20020;-80
2022/05/04 00:07:33;;;;;;;2.95;0.40;;;;;;;7.20;40.64;101956.84;5064549;28;20051;-82
2022/05/04 00:09:59;;;;;;;6.50;0.68;;;;;;;7.15;40.10;101952.53;5048228;28;20099;-77
2022/05/04 00:12:25;;;;;;;6.25;0.82;;;;;;;7.13;40.07;101955.13;5047498;28;20547;-77
2022/05/04 00:14:51;;;;;;;4.35;0.50;;;;;;;7.04;39.99;101963.91;5045685;28;20055;-79
2022/05/04 00:17:17;;;;;;;5.40;0.38;;;;;;;7.03;40.34;101969.97;5043835;28;20064;-78
2022/05/04 00:19:43;;;;;;;6.13;0.50;;;;;;;6.98;40.19;101965.69;5046930;28;20108;-78
2022/05/04 00:22:08;;;;;;;1.95;0.40;;;;;;;7.11;40.24;101962.97;5062569;28;20074;-78
2022/05/04 00:24:34;;;;;;;3.05;0.30;;;;;;;7.11;40.18;101972.53;5042260;28;20029;-78
2022/05/04 00:27:00;;;;;;;2.28;0.63;;;;;;;7.12;40.00;101958.63;5062153;28;20033;-79
2022/05/04 00:29:25;;;;;;;5.60;0.80;;;;;;;7.10;40.18;101966.44;5045773;28;20016;-78
2022/05/04 00:31:51;;;;;;;7.97;1.20;;;;;;;7.04;40.34;101956.09;5043564;28;20067;-80
2022/05/04 00:34:16;;;;;;;11.02;1.05;;;;;;;7.02;40.53;101957.84;5064281;28;20091;-79
2022/05/04 00:36:42;;;;;;;9.52;0.82;;;;;;;7.00;40.22;101953.50;5063469;28;20031;-80
2022/05/04 00:39:07;;;;;;;9.43;0.95;;;;;;;6.94;40.61;101959.63;5047350;28;20036;-78
2022/05/04 00:41:33;;;;;;;2.40;0.60;;;;;;;7.09;40.77;101948.28;5047139;28;20062;-80
2022/05/04 00:43:59;;;;;;;2.05;0.47;;;;;;;7.24;40.47;101953.31;5046030;28;20482;-81
2022/05/04 00:46:24;;;;;;;1.42;0.52;;;;;;;7.27;40.53;101948.09;5061089;28;20472;-80
2022/05/04 00:48:50;;;;;;;4.72;0.65;;;;;;;7.04;40.54;101943.09;5058043;28;20054;-77
2022/05/04 00:51:16;;;;;;;5.03;0.57;;;;;;;7.04;40.93;101952.63;5048223;28;20316;-80
2022/05/04 00:53:43;;;;;;;7.97;0.73;;;;;;;6.97;40.71;101943.16;5057467;28;20043;-77
2022/05/04 00:56:09;;;;;;;6.65;0.73;;;;;;;7.13;40.65;101947.34;5064659;28;20095;-79
2022/05/04 00:58:56;;;;;;;3.15;0.45;;;;;;;7.10;40.75;101945.63;5059667;28;20037;-80
2022/05/04 01:01:28;;;;;;;5.07;0.40;;;;;;;7.03;41.30;101943.97;5060317;28;20140;-82
2022/05/04 01:03:55;;;;;;;2.63;0.30;;;;;;;7.02;41.22;101947.47;5054936;28;20039;-80
2022/05/04 01:06:21;;;;;;;5.72;0.77;;;;;;;7.01;40.52;101950.91;5066465;28;20078;-79
2022/05/04 01:08:53;;;;;;;7.07;0.52;;;;;;;7.03;40.85;101943.13;5047576;28;20502;-78
2022/05/04 01:11:19;;;;;;;;;;;;;;;7.00;41.53;101950.91;5058624;28;20120;-77
2022/05/04 01:14:05;;;;;;;2.67;0.22;;;;;;;7.07;41.00;101950.03;5057546;28;19916;-78
2022/05/04 01:16:33;;;;;;;2.38;1.05;;;;;;;7.00;40.97;101943.13;5053084;28;20133;-78
2022/05/04 01:19:00;;;;;;;4.75;0.32;;;;;;;7.14;40.56;101938.69;5043207;28;20106;-80
2022/05/04 01:21:25;;;;;;;6.47;0.50;;;;;;;7.06;40.80;101940.47;5046509;28;20053;-81
2022/05/04 01:23:54;;;;;;;8.68;1.27;;;;;;;7.21;40.48;101944.69;5064234;28;20025;-78
2022/05/04 01:26:20;;;;;;;5.63;0.40;;;;;;;7.31;40.49;101939.41;5057979;28;20543;-80
2022/05/04 01:28:46;;;;;;;8.93;0.50;;;;;;;7.32;40.57;101941.13;5045960;28;20553;-81
2022/05/04 01:31:12;;;;;;;4.82;0.52;;;;;;;7.26;40.22;101942.91;5042358;28;20035;-81
2022/05/04 01:33:38;;;;;;;1.98;0.47;;;;;;;7.20;40.93;101946.44;5047271;28;20036;-80
2022/05/04 01:36:04;;;;;;;8.80;0.68;;;;;;;7.25;40.94;101949.00;5052123;28;20032;-82
2022/05/04 01:38:30;;;;;;;2.38;0.50;;;;;;;7.26;40.57;101946.38;5063296;28;20698;-81
2022/05/04 01:40:56;;;;;;;2.78;0.60;;;;;;;7.05;40.56;101946.56;5044684;28;20033;-80
2022/05/04 01:43:21;;;;;;;6.63;0.70;;;;;;;6.95;41.34;101947.50;5061685;28;20037;-79
2022/05/04 01:45:47;;;;;;;4.03;0.73;;;;;;;7.08;41.17;101942.19;5066720;28;20464;-81
2022/05/04 01:48:12;;;;;;;2.53;1.15;;;;;;;7.01;41.36;101940.50;5048171;28;20041;-82
2022/05/04 01:50:38;;;;;;;3.72;0.90;;;;;;;7.01;41.14;101947.47;5063786;28;20028;-81
2022/05/04 01:53:04;;;;;;;7.00;0.70;;;;;;;7.03;41.32;101948.31;5063135;28;20094;-76
2022/05/04 01:55:33;;;;;;;8.32;0.73;;;;;;;6.95;41.55;101950.09;5062562;28;20032;-82
2022/05/04 01:57:58;;;;;;;8.13;0.80;;;;;;;7.01;41.02;101944.84;5046259;28;20029;-79
2022/05/04 02:00:24;;;;;;;2.40;0.47;;;;;;;6.96;41.38;101947.50;5044081;28;20134;-79
2022/05/04 02:02:50;;;;;;;3.95;0.63;;;;;;;7.05;41.15;101944.81;5042593;28;20033;-78
2022/05/04 02:05:16;;;;;;;2.65;0.60;;;;;;;7.18;41.19;101940.38;5045895;28;20032;-78
2022/05/04 02:07:43;;;;;;;6.40;0.85;;;;;;;6.91;41.92;101939.75;5041717;28;20040;-78
2022/05/04 02:10:10;;;;;;;5.40;1.17;;;;;;;7.04;41.71;101950.03;5042649;28;20032;-80
2022/05/04 02:12:36;;;;;;;8.40;0.73;;;;;;;7.17;41.23;101938.66;5042665;28;20102;-80
2022/05/04 02:15:06;;;;;;;3.78;0.82;;;;;;;7.19;41.30;101941.25;5047409;28;20520;-80
2022/05/04 02:17:33;;;;;;;4.20;0.77;;;;;;;7.22;40.75;101938.59;5041465;28;20103;-81
2022/05/04 02:19:58;;;;;;;2.45;1.00;;;;;;;7.10;41.53;101940.44;5042130;28;20330;-81
2022/05/04 02:22:24;;;;;;;4.20;0.63;;;;;;;7.13;41.72;101944.75;5043901;28;20705;-81
2022/05/04 02:24:50;;;;;;;5.82;1.20;;;;;;;7.20;41.28;101945.56;5042851;28;20508;-80
2022/05/04 02:27:15;;;;;;;4.55;0.70;;;;;;;7.23;41.03;101937.75;5062611;28;20041;-78
2022/05/04 02:29:41;;;;;;;7.22;0.98;;;;;;;7.21;41.14;101935.16;5025169;28;20407;-78
2022/05/04 02:32:07;;;;;;;4.57;0.40;;;;;;;7.26;41.56;101930.75;5064199;28;20494;-80
2022/05/04 02:34:32;;;;;;;2.95;0.60;;;;;;;7.27;41.60;101944.66;5044124;28;20028;-81
2022/05/04 02:39:42;;;;;;;4.00;0.80;;;;;;;7.24;41.55;101932.50;5057247;28;20107;-80
2022/05/04 02:42:10;;;;;;;4.85;0.57;;;;;;;7.09;40.96;101932.66;5073549;28;20119;-80
2022/05/04 02:44:36;;;;;;;7.53;0.85;;;;;;;7.07;41.22;101935.28;5038459;28;20033;-80
2022/05/04 02:47:02;;;;;;;4.38;0.50;;;;;;;7.10;41.27;101930.03;5061651;28;20384;-81
2022/05/04 02:49:27;;;;;;;5.57;0.73;;;;;;;7.04;41.71;101930.09;5040539;28;20024;-79
2022/05/04 02:51:53;;;;;;;4.05;0.43;;;;;;;7.05;41.48;101921.41;5057096;28;20047;-81
2022/05/04 02:54:18;;;;;;;7.32;0.65;;;;;;;7.10;41.87;101924.84;5047824;28;20079;-80
2022/05/04 02:56:44;;;;;;;2.95;0.80;;;;;;;7.14;41.85;101930.03;5033621;28;20029;-79
2022/05/04 02:59:10;;;;;;;6.22;0.57;;;;;;;7.03;41.48;101917.13;5027790;28;20049;-79
2022/05/04 03:04:19;;;;;;;4.85;0.68;;;;;;;7.04;41.75;101924.03;5062974;28;20057;-80
2022/05/04 03:06:45;;;;;;;6.00;1.15;;;;;;;7.07;41.69;101918.81;5050607;28;20060;-78
2022/05/04 03:09:11;;;;;;;4.70;0.57;;;;;;;7.03;41.16;101920.56;5046751;28;20080;-81
2022/05/04 03:11:55;;;;;;;1.35;0.20;;;;;;;7.03;41.64;101917.97;5043373;28;20033;-80
2022/05/04 03:14:27;;;;;;;7.82;0.82;;;;;;;7.10;41.46;101916.19;5049060;28;20090;-82
2022/05/04 03:16:53;;;;;;;4.20;0.40;;;;;;;7.10;41.11;101910.97;5049955;28;20098;-79
2022/05/04 03:19:23;;;;;;;5.63;0.60;;;;;;;7.08;41.17;101915.34;5061425;28;20107;-80
2022/05/04 03:21:50;;;;;;;4.70;0.88;;;;;;;7.19;41.05;101918.69;5065194;28;20032;-80
2022/05/04 03:24:16;;;;;;;4.97;0.40;;;;;;;7.24;40.69;101916.91;5059709;28;20032;-81
2022/05/04 03:26:42;;;;;;;7.35;0.88;;;;;;;7.21;41.20;101916.94;5046355;28;20029;-82
2022/05/04 03:29:08;;;;;;;4.70;0.40;;;;;;;7.23;41.17;101912.59;5048137;28;20119;-80
2022/05/04 03:31:34;;;;;;;1.55;0.82;;;;;;;7.25;40.68;101917.78;5048436;28;20421;-82
2022/05/04 03:34:01;;;;;;;7.80;0.40;;;;;;;7.26;40.77;101915.16;5061100;28;20033;-80
2022/05/04 03:36:27;;;;;;;6.70;0.57;;;;;;;7.18;40.35;101917.00;5045101;28;20509;-78
2022/05/04 03:38:53;;;;;;;7.05;2.10;;;;;;;7.21;40.41;101911.75;5045012;28;20645;-78
2022/05/04 03:41:19;;;;;;;4.00;0.35;;;;;;;7.25;40.36;101917.78;5046033;28;20037;-79
2022/05/04 03:43:44;;;;;;;2.83;1.10;;;;;;;7.22;40.08;101910.00;5042287;28;20039;-80
2022/05/04 03:46:12;;;;;;;4.80;0.30;;;;;;;7.09;40.31;101911.88;5049275;28;20036;-80
2022/05/04 03:48:37;;;;;;;3.85;0.45;;;;;;;7.07;40.48;101914.47;5047296;28;20502;-78
2022/05/04 03:51:03;;;;;;;4.18;0.93;;;;;;;7.14;40.56;101912.69;5062583;28;20094;-80
2022/05/04 03:53:28;;;;;;;2.60;0.65;;;;;;;7.24;40.36;101919.50;5026708;28;20056;-81
2022/05/04 03:55:54;;;;;;;4.13;0.70;;;;;;;7.22;40.11;101916.09;5064642;28;20040;-77
2022/05/04 03:58:19;;;;;;;9.05;0.98;;;;;;;7.08;39.92;101916.19;5050612;28;20041;-79
2022/05/04 04:00:45;;;;;;;1.92;0.30;;;;;;;7.14;40.38;101919.63;5064995;28;20036;-81
2022/05/04 04:03:11;;;;;;;4.00;0.85;;;;;;;7.12;40.02;101917.88;5025310;28;20047;-78
2022/05/04 04:05:37;;;;;;;4.35;0.55;;;;;;;7.17;40.15;101911.78;5047315;28;20055;-80
2022/05/04 04:08:02;;;;;;;2.75;0.43;;;;;;;7.22;40.18;101920.41;5044051;28;20035;-79
2022/05/04 04:10:28;;;;;;;3.97;0.65;;;;;;;7.23;40.09;101919.53;5053433;28;20063;-78
2022/05/04 04:12:54;;;;;;;3.22;0.52;;;;;;;7.17;39.58;101914.38;5036484;28;20052;-77
2022/05/04 04:15:19;;;;;;;4.78;0.57;;;;;;;7.05;40.19;101915.38;5066591;28;20025;-82
2022/05/04 04:17:46;;;;;;;2.45;0.50;;;;;;;7.13;39.75;101918.75;5045187;28;20044;-80
2022/05/04 04:22:55;;;;;;;2.38;0.30;;;;;;;7.14;39.48;101920.47;5057274;28;20073;-84
2022/05/04 04:25:21;;;;;;;5.50;0.60;;;;;;;7.16;38.78;101921.34;5052039;28;20741;-82
2022/05/04 04:27:46;;;;;;;4.32;0.70;;;;;;;7.08;39.53;101925.72;5060813;28;20451;-78
2022/05/04 04:30:13;;;;;;;1.50;0.50;;;;;;;7.07;39.35;101930.06;5051260;28;20021;-81
2022/05/04 04:32:38;;;;;;;5.07;0.50;;;;;;;7.03;39.23;101930.13;5063821;28;20051;-82
2022/05/04 04:35:04;;;;;;;4.88;0.85;;;;;;;7.20;39.18;101922.16;5065639;28;20024;-82
2022/05/04 04:37:30;;;;;;;10.95;1.58;;;;;;;7.19;38.79;101920.44;5047618;28;20036;-82
2022/05/04 04:39:56;;;;;;;2.13;0.30;;;;;;;7.28;39.23;101923.81;5046299;28;20475;-82
2022/05/04 04:42:24;;;;;;;1.52;0.30;;;;;;;7.39;38.11;101931.50;5060781;28;20115;-81
2022/05/04 04:44:50;;;;;;;3.25;0.32;;;;;;;7.47;38.20;101934.06;5045705;28;20055;-82
2022/05/04 04:47:15;;;;;;;3.80;0.40;;;;;;;7.44;37.91;101934.91;5061716;28;20093;-78
2022/05/04 04:49:41;;;;;;;2.65;1.00;;;;;;;7.52;37.86;101924.44;5066824;28;20037;-77
2022/05/04 04:52:06;;;;;;;2.70;0.30;;;;;;;7.59;37.58;101930.50;5063089;28;20200;-79
2022/05/04 04:54:32;;;;;;;2.47;0.40;;;;;;;7.58;37.20;101934.84;5068058;28;20511;-80
2022/05/04 04:56:58;;;;;;;4.40;0.40;;;;;;;7.43;37.62;101929.75;5042870;28;20028;-81
2022/05/04 04:59:23;;;;;;;4.13;1.13;;;;;;;7.39;36.44;101925.44;5061399;28;20024;-80
2022/05/04 05:01:49;;;;;;;4.70;0.40;;;;;;;7.52;36.98;101924.44;5048918;28;20028;-80
2022/05/04 05:04:16;;;;;;;3.13;0.60;;;;;;;7.23;37.46;101914.34;5061380;28;20182;-78
2022/05/04 05:06:41;;;;;;;2.22;0.75;;;;;;;7.51;36.96;101920.13;5048018;28;20036;-81
2022/05/04 05:09:07;;;;;;;4.55;0.50;;;;;;;7.70;36.46;101920.81;5051427;28;20036;-78
2022/05/04 05:11:32;;;;;;;3.30;0.68;;;;;;;7.94;36.33;101920.53;5066576;28;20203;-82
2022/05/04 05:16:42;;;;;;;2.70;0.30;;;;;;;7.99;36.03;101920.47;5063931;28;20040;-79
2022/05/04 05:19:08;;;;;;;6.18;0.50;;;;;;;8.05;35.77;101928.22;5048585;28;20064;-78
2022/05/04 05:21:34;;;;;;;1.20;0.38;;;;;;;8.01;34.64;101923.06;5061342;28;20035;-79
2022/05/04 05:23:59;;;;;;;3.10;0.35;;;;;;;7.84;35.59;101923.25;5063619;28;20412;-79
2022/05/04 05:26:25;;;;;;;6.40;0.50;;;;;;;7.78;35.98;101919.00;5047640;28;20224;-80
2022/05/04 05:28:51;;;;;;;4.97;0.35;;;;;;;7.87;35.60;101918.00;5043268;28;20051;-79
2022/05/04 05:31:16;;;;;;;2.53;0.45;;;;;;;7.54;36.29;101925.31;5043823;28;20122;-79
2022/05/04 05:33:45;;;;;;;5.93;0.45;;;;;;;7.94;35.94;101922.28;5041960;28;20037;-80
2022/05/04 05:36:11;;;;;;;4.72;0.63;;;;;;;7.92;35.47;101924.91;5050005;28;20131;-81
2022/05/04 05:38:36;;;;;;;3.17;0.40;;;;;;;7.79;36.45;101922.47;5041867;28;20127;-80
2022/05/04 05:41:02;;;;;;;5.38;0.20;;;;;;;8.14;35.92;101917.69;5063434;28;20029;-81
2022/05/04 05:43:30;;;;;;;3.42;0.40;;;;;;;8.22;35.87;101917.56;5057023;28;20237;-80
2022/05/04 05:45:56;;;;;;;4.72;0.88;;;;;;;8.41;35.05;101918.19;5062863;28;20067;-82
2022/05/04 05:48:21;;;;;;;7.53;0.73;;;;;;;8.17;35.17;101921.13;5044219;28;20040;-81
2022/05/04 05:50:47;;;;;;;3.33;0.40;;;;;;;8.14;34.73;101915.06;5050269;28;20056;-79
2022/05/04 05:53:16;;;;;;;4.88;0.20;;;;;;;8.29;34.83;101921.84;5049101;28;20104;-80
2022/05/04 05:55:42;;;;;;;2.05;0.43;;;;;;;8.14;34.74;101916.81;5049142;28;20024;-78
2022/05/04 05:58:09;;;;;;;6.03;0.82;;;;;;;8.14;34.16;101917.69;5043937;28;20128;-80
2022/05/04 06:00:41;;;;;;;3.97;0.40;;;;;;;8.10;35.19;101921.19;5061060;28;20031;-79
2022/05/04 06:03:07;;;;;;;9.57;0.50;;;;;;;8.34;34.46;101920.00;5042531;28;20128;-80
2022/05/04 06:05:32;;;;;;;3.72;0.20;;;;;;;8.28;34.48;101924.44;5048203;28;20150;-79
2022/05/04 06:07:58;;;;;;;3.63;0.57;;;;;;;8.59;33.98;101919.66;5060272;28;20052;-78
2022/05/04 06:10:26;;;;;;;2.75;0.43;;;;;;;8.46;34.68;101916.38;5028246;28;20037;-79
2022/05/04 06:12:59;;;;;;;2.10;0.52;;;;;;;8.52;34.47;101924.09;5059182;28;20037;-79
2022/05/04 06:15:24;;;;;;;6.30;0.60;;;;;;;8.81;34.35;101925.44;5063239;28;20702;-80
2022/05/04 06:17:50;;;;;;;4.22;0.43;;;;;;;8.29;34.38;101923.56;5044545;28;20036;-79
2022/05/04 06:20:17;;;;;;;5.57;0.40;;;;;;;8.52;34.22;101925.84;5047876;28;20540;-78
2022/05/04 06:22:42;;;;;;;2.33;0.30;;;;;;;8.62;34.18;101922.22;5031923;28;20049;-80
2022/05/04 06:25:08;;;;;;;4.50;0.40;;;;;;;8.52;34.28;101924.09;5056708;28;20032;-79
2022/05/04 06:27:34;;;;;;;7.32;0.30;;;;;;;8.78;34.17;101917.66;5064280;28;20040;-79
2022/05/04 06:35:28;;;;;;;3.15;0.40;;;;;;;8.80;33.83;101928.06;5059306;28;20025;-80
2022/05/04 06:37:53;;;;;;;3.65;0.60;;;;;;;9.05;33.03;101928.53;5071937;28;20087;-80
2022/05/04 06:40:20;;;;;;;7.95;0.60;;;;;;;9.10;33.47;101924.09;5047175;28;20457;-79
2022/05/04 06:42:46;;;;;;;3.65;0.45;;;;;;;8.58;33.35;101928.34;5060550;28;20181;-81
2022/05/04 06:45:12;;;;;;;3.90;0.30;;;;;;;8.77;33.74;101924.63;5063408;28;20036;-80
2022/05/04 06:47:37;;;;;;;3.72;0.20;;;;;;;9.46;32.63;101929.56;5041214;28;20047;-79
2022/05/04 06:50:03;;;;;;;4.70;0.20;;;;;;;9.63;32.30;101927.47;5045969;28;20380;-79
2022/05/04 06:52:33;;;;;;;4.38;0.60;;;;;;;9.26;32.30;101927.31;5045948;28;20071;-80
2022/05/04 06:54:59;;;;;;;10.18;0.68;;;;;;;9.23;32.77;101932.56;5049795;28;20052;-78
2022/05/04 06:57:24;;;;;;;3.03;0.85;;;;;;;9.67;31.38;101930.88;5044110;28;20064;-78
2022/05/04 06:59:50;;;;;;;2.03;0.40;;;;;;;9.47;32.48;101934.72;5043014;28;20028;-79
2022/05/04 07:02:16;;;;;;;4.97;0.50;;;;;;;9.52;31.75;101939.84;5058654;28;20140;-78
2022/05/04 07:04:42;;;;;;;1.30;0.35;;;;;;;9.42;32.34;101938.31;5045237;28;20033;-79
2022/05/04 07:07:08;;;;;;;5.03;0.40;;;;;;;9.74;31.94;101938.56;5043629;28;20033;-78
2022/05/04 07:09:33;;;;;;;4.25;0.35;;;;;;;9.44;31.94;101936.56;5064345;28;20073;-78
2022/05/04 07:11:59;;;;;;;3.38;0.30;;;;;;;9.53;31.47;101939.84;5043089;28;20089;-79
2022/05/04 07:14:25;;;;;;;0.95;0.20;;;;;;;9.38;31.54;101937.50;5066749;28;20032;-80
2022/05/04 07:16:53;;;;;;;1.58;0.35;;;;;;;9.35;31.99;101938.44;5044490;28;20399;-79
2022/05/04 07:19:19;;;;;;;1.95;0.20;;;;;;;9.89;31.54;101933.97;5065718;28;20036;-82
2022/05/04 07:21:45;;;;;;;3.88;0.28;;;;;;;9.93;30.57;101938.25;5046963;28;20041;-79
2022/05/04 07:24:12;;;;;;;3.15;0.22;;;;;;;10.49;30.34;101930.94;5065326;28;20137;-82
2022/05/04 07:26:40;;;;;;;5.68;0.73;;;;;;;9.97;31.16;101932.06;5043580;28;20067;-81
2022/05/04 07:29:05;;;;;;;2.80;0.55;;;;;;;10.26;30.71;101935.81;5062299;28;20116;-80
2022/05/04 07:31:31;;;;;;;2.83;0.30;;;;;;;10.13;30.45;101933.47;5061917;28;20041;-82
2022/05/04 07:33:57;;;;;;;6.78;0.80;;;;;;;10.08;30.81;101934.44;5041146;28;21893;-78
2022/05/04 07:36:22;;;;;;;4.65;1.00;;;;;;;9.93;31.14;101941.72;5049482;28;20043;-81
2022/05/04 07:38:48;;;;;;;6.10;0.40;;;;;;;9.95;31.00;101945.16;5045352;28;20510;-81
2022/05/04 07:43:59;;;;;;;5.30;0.40;;;;;;;9.97;31.63;101947.75;5054365;28;20112;-81
2022/05/04 07:46:27;;;;;;;5.43;0.55;;;;;;;10.25;30.51;101948.00;5044454;28;20048;-78
2022/05/04 07:48:54;;;;;;;6.50;0.90;;;;;;;10.39;30.22;101942.47;5039655;28;20043;-79
2022/05/04 07:51:19;;;;;;;3.28;0.70;;;;;;;10.25;30.51;101955.00;5064368;28;20090;-78
2022/05/04 07:53:45;;;;;;;7.32;0.35;;;;;;;10.25;29.86;101952.38;5042071;28;20037;-78
2022/05/04 07:56:10;;;;;;;2.60;0.75;;;;;;;9.75;30.73;101948.13;5041721;28;20351;-79
2022/05/04 07:58:36;;;;;;;4.25;0.63;;;;;;;10.03;31.16;101952.81;5037930;28;20044;-78
2022/05/04 08:06:29;;;;;;;3.60;0.82;;;;;;;10.36;30.83;101950.41;5061828;28;20041;-75
2022/05/04 08:08:55;;;;;;;7.05;0.47;;;;;;;10.32;30.54;101949.59;5043794;28;20048;-79
2022/05/04 08:11:20;;;;;;;3.25;0.20;;;;;;;10.24;30.85;101953.28;5044805;28;20407;-76
2022/05/04 08:13:46;;;;;;;1.55;0.30;;;;;;;10.01;30.93;101949.38;5039598;28;20098;-79
2022/05/04 08:16:13;;;;;;;4.63;0.30;;;;;;;10.09;30.56;101947.47;5045364;28;20154;-80
2022/05/04 08:18:42;;;;;;;5.28;0.70;;;;;;;10.57;30.46;101949.94;5042346;28;20047;-78
2022/05/04 08:21:08;;;;;;;2.55;0.52;;;;;;;10.54;29.32;101952.59;5054611;28;20021;-79
2022/05/04 08:23:34;;;;;;;0.90;0.40;;;;;;;10.88;29.02;101958.81;5036783;28;20446;-79
2022/05/04 08:26:01;;;;;;;3.22;0.32;;;;;;;10.78;29.73;101953.78;5042796;28;20070;-78
2022/05/04 08:28:27;;;;;;;8.00;0.50;;;;;;;11.00;29.23;101956.78;5052193;28;20041;-78
2022/05/04 08:30:52;;;;;;;6.63;0.57;;;;;;;11.10;28.93;101959.16;5044108;28;20029;-81
2022/05/04 08:33:18;;;;;;;3.38;0.20;;;;;;;11.32;28.30;101962.94;5062563;28;20040;-79
2022/05/04 08:35:44;;;;;;;4.85;0.77;;;;;;;11.49;28.66;101964.28;5041294;28;20058;-80
2022/05/04 08:38:12;;;;;;;0.85;0.20;;;;;;;11.35;28.45;101964.63;5038406;28;20072;-78
2022/05/04 08:40:38;;;;;;;3.72;0.32;;;;;;;10.98;29.02;101960.34;5059291;28;20039;-77
2022/05/04 08:43:07;;;;;;;2.65;0.63;;;;;;;10.20;29.26;101966.41;5060117;28;20260;-80
2022/05/04 08:45:38;;;;;;;6.25;1.13;;;;;;;10.47;29.83;101964.09;5059234;28;20380;-79
2022/05/04 08:48:05;;;;;;;3.97;0.65;;;;;;;11.12;28.51;101963.47;5044097;28;20218;-78
2022/05/04 08:50:32;;;;;;;3.75;0.73;;;;;;;10.30;28.68;101966.19;5060827;28;20117;-79
2022/05/04 08:52:58;;;;;;;4.68;0.68;;;;;;;11.09;28.37;101963.53;5054273;28;20045;-79
2022/05/04 08:55:24;;;;;;;0.82;0.35;;;;;;;11.20;28.77;101965.91;5060279;28;20032;-80
2022/05/04 08:57:51;;;;;;;4.20;0.28;;;;;;;11.42;28.72;101969.69;5042713;28;20048;-80
2022/05/04 09:00:18;;;;;;;5.57;0.28;;;;;;;12.53;26.79;101963.06;5041941;28;20032;-79
2022/05/04 09:02:44;;;;;;;3.80;0.52;;;;;;;11.78;27.33;101969.63;5059244;28;20033;-77
2022/05/04 09:05:27;;;;;;;7.72;0.30;;;;;;;11.63;27.57;101970.84;5042598;28;20051;-78
2022/05/04 09:07:56;;;;;;;2.88;0.50;;;;;;;11.05;28.38;101967.13;5060157;28;20067;-78
2022/05/04 09:10:27;;;;;;;1.75;0.30;;;;;;;11.22;28.66;101969.34;5060566;28;20033;-79
2022/05/04 09:12:55;;;;;;;2.85;0.30;;;;;;;11.29;28.45;101963.03;5059368;28;20131;-80
2022/05/04 09:15:28;;;;;;;6.63;0.55;;;;;;;11.37;28.42;101966.28;5039973;28;20029;-79
2022/05/04 09:18:02;;;;;;;4.65;0.40;;;;;;;11.03;29.13;101968.91;5040433;28;20060;-80
2022/05/04 09:20:48;;;;;;;2.42;0.20;;;;;;;10.63;29.02;101970.69;5060305;28;20044;-79
2022/05/04 09:23:16;;;;;;;3.38;0.57;;;;;;;10.81;28.69;101966.81;5059592;28;20199;-82
2022/05/04 09:25:42;;;;;;;5.78;0.43;;;;;;;11.02;28.70;101968.06;5060516;28;20494;-78
2022/05/04 09:28:12;;;;;;;4.35;0.47;;;;;;;10.95;28.35;101966.50;5060913;28;20045;-81
2022/05/04 09:30:46;;;;;;;2.88;0.65;;;;;;;11.35;28.03;101970.75;5062868;28;20032;-79
2022/05/04 09:33:17;;;;;;;3.13;0.45;;;;;;;11.76;27.58;101966.16;5059260;28;20052;-79
2022/05/04 09:35:43;;;;;;;3.60;0.40;;;;;;;11.42;28.20;101966.22;5065714;28;20016;-78
2022/05/04 09:46:37;;;;;;;0.85;0.20;;;;;;;11.63;28.61;101965.63;5053953;28;20036;-81
2022/05/04 09:49:20;;;;;;;3.50;0.43;;;;;;;11.62;27.65;101963.03;5044197;28;20518;-82
2022/05/04 09:51:50;;;;;;;5.68;0.80;;;;;;;11.19;28.43;101965.00;5058650;28;20372;-77
2022/05/04 09:54:29;;;;;;;3.33;0.30;;;;;;;11.74;28.79;101961.84;5045878;28;20091;-82
2022/05/04 09:56:55;;;;;;;4.68;0.50;;;;;;;11.63;27.53;101956.91;5053177;28;20047;-80
2022/05/04 09:59:23;;;;;;;0.77;0.30;;;;;;;11.86;27.83;101972.88;5060513;28;20036;-80
2022/05/04 10:01:51;;;;;;;6.53;0.73;;;;;;;11.27;27.81;101967.44;5060196;28;20032;-79
2022/05/04 10:04:17;;;;;;;6.82;0.45;;;;;;;11.44;28.65;101965.25;5065823;28;20017;-80
2022/05/04 10:06:44;;;;;;;6.03;0.57;;;;;;;11.66;28.07;101962.06;5047951;28;20624;-81
2022/05/04 10:09:10;;;;;;;4.47;0.35;;;;;;;11.84;27.92;101964.22;5059100;28;20036;-82
2022/05/04 10:11:39;;;;;;;6.93;0.40;;;;;;;11.49;28.18;101959.06;5047354;28;20044;-81
2022/05/04 10:14:09;;;;;;;5.82;0.30;;;;;;;11.30;29.25;101956.88;5061776;28;20076;-79
2022/05/04 10:16:44;;;;;;;2.42;0.45;;;;;;;11.86;27.79;101957.16;5063846;28;20119;-77
2022/05/04 10:19:17;;;;;;;3.30;0.60;;;;;;;11.66;29.31;101954.19;5041653;28;20037;-78
2022/05/04 10:21:48;;;;;;;12.50;0.73;;;;;;;11.85;28.33;101950.19;5072754;28;20092;-78
2022/05/04 10:24:17;;;;;;;7.47;0.60;;;;;;;11.80;28.20;101952.09;5066940;28;20036;-77
2022/05/04 10:26:45;;;;;;;2.13;0.55;;;;;;;12.13;27.63;101954.63;5060690;28;20041;-80
2022/05/04 10:32:07;;;;;;;2.80;0.50;;;;;;;12.04;27.58;101953.16;5070116;28;20386;-84
2022/05/04 10:34:33;;;;;;;3.80;0.60;;;;;;;12.01;27.48;101960.25;5049925;28;20028;-79
2022/05/04 10:36:59;;;;;;;3.47;0.63;;;;;;;11.41;28.08;101954.84;5047227;28;20069;-79
2022/05/04 10:39:24;;;;;;;5.00;0.68;;;;;;;11.69;27.44;101954.13;5051128;28;20037;-76
2022/05/04 10:41:50;;;;;;;1.98;0.30;;;;;;;12.25;26.80;101951.66;5043129;28;20032;-78
2022/05/04 10:44:17;;;;;;;4.32;0.65;;;;;;;12.31;27.55;101949.75;5065192;28;20522;-80
2022/05/04 10:46:49;;;;;;;5.20;0.73;;;;;;;12.44;27.33;101943.22;5061301;28;20033;-77
2022/05/04 10:49:16;;;;;;;3.28;0.30;;;;;;;12.34;27.20;101947.06;5078711;28;20025;-75
2022/05/04 10:51:46;;;;;;;3.50;0.28;;;;;;;12.62;26.45;101947.03;5056431;28;20037;-80
2022/05/04 10:54:21;;;;;;;3.03;0.55;;;;;;;13.45;25.50;101939.94;5043473;28;20517;-83
2022/05/04 10:57:02;;;;;;;5.60;0.32;;;;;;;13.19;25.36;101945.22;5059723;28;20032;-81
2022/05/04 10:59:31;;;;;;;4.35;0.40;;;;;;;13.45;25.37;101939.94;5048027;28;20405;-79
2022/05/04 11:02:04;;;;;;;7.78;0.40;;;;;;;12.97;26.45;101939.84;5063699;28;20047;-83
2022/05/04 11:04:30;;;;;;;4.13;0.38;;;;;;;12.19;27.29;101938.75;5063778;28;20120;-78
2022/05/04 11:07:07;;;;;;;2.92;0.55;;;;;;;12.52;27.51;101943.00;5048178;28;20049;-79
2022/05/04 11:09:42;;;;;;;9.00;0.88;;;;;;;12.97;26.61;101935.44;5067761;28;20088;-78
2022/05/04 11:12:10;;;;;;;1.45;0.47;;;;;;;12.72;27.33;101926.69;5055080;28;20280;-79
2022/05/04 11:14:36;;;;;;;7.18;0.65;;;;;;;13.40;26.52;101939.22;5055134;28;20032;-79
2022/05/04 11:17:11;;;;;;;2.75;0.60;;;;;;;12.99;26.87;101930.16;5075443;28;20078;-78
2022/05/04 11:19:48;;;;;;;1.85;0.28;;;;;;;12.88;27.28;101933.13;5075884;28;20040;-80
2022/05/04 11:22:15;;;;;;;2.60;0.50;;;;;;;12.96;27.00;101930.25;5065598;28;20045;-79
2022/05/04 11:24:41;;;;;;;12.77;0.82;;;;;;;13.00;27.15;101929.22;5078601;28;20028;-79
2022/05/04 11:27:07;;;;;;;4.90;0.63;;;;;;;13.00;26.53;101930.09;5046627;28;20099;-79
2022/05/04 11:29:33;;;;;;;3.88;0.43;;;;;;;13.34;26.72;101928.97;5046381;28;20075;-80
2022/05/04 11:32:01;;;;;;;5.53;0.32;;;;;;;13.19;26.61;101937.34;5043216;28;20032;-82
2022/05/04 11:34:32;;;;;;;2.80;0.60;;;;;;;13.05;27.04;101930.81;5042357;28;20044;-79
2022/05/04 11:37:04;;;;;;;6.75;0.60;;;;;;;12.92;26.32;101932.13;5060956;28;20044;-79
2022/05/04 11:39:29;;;;;;;4.93;1.07;;;;;;;12.40;27.09;101920.63;5062747;28;20075;-80
2022/05/04 11:41:57;;;;;;;2.97;0.40;;;;;;;12.60;27.48;101934.00;5061418;28;20307;-80
2022/05/04 11:44:24;;;;;;;2.97;0.85;;;;;;;12.28;28.29;101941.06;5060750;28;20033;-79
2022/05/04 11:46:51;;;;;;;6.57;0.38;;;;;;;11.92;28.22;101929.06;5040626;28;20082;-79
2022/05/04 11:49:19;;;;;;;8.00;0.50;;;;;;;12.12;28.57;101937.22;5047474;28;20033;-80
2022/05/04 11:51:44;;;;;;;2.60;0.50;;;;;;;12.76;27.36;101926.53;5043814;28;20071;-80
2022/05/04 11:54:10;;;;;;;3.20;0.60;;;;;;;12.96;26.82;101925.00;5046771;28;20067;-78
2022/05/04 11:56:35;;;;;;;5.43;0.80;;;;;;;13.09;27.08;101927.19;5041894;28;20383;-80
2022/05/04 11:59:02;;;;;;;4.63;0.40;;;;;;;13.40;26.03;101931.34;5057459;28;20056;-77
2022/05/04 12:01:27;;;;;;;4.05;0.50;;;;;;;13.18;26.16;101923.34;5054888;28;20028;-79
2022/05/04 12:03:53;;;;;;;6.07;0.93;;;;;;;14.02;25.34;101921.25;5054901;28;20035;-78
2022/05/04 12:06:21;;;;;;;3.95;0.68;;;;;;;13.74;25.85;101922.28;5058917;28;20065;-78